Time;durP1;ratioP1;P1;durP2;ratioP2;P2;SDS_P1;SDS_P2;PMS_P1;PMS_P2;Temp;Humidity;BMP_temperature;BMP_pressure;BME280_temperature;BME280_humidity;BME280_pressure;Samples;Min_cycle;Max_cycle;Signal;HPM_P1;HPM_P2
2020/12/02 00:02:38;;;;;;;17.60;12.60;;;7.30;99.90;;;;;;5091280;28;20795;-73
2020/12/02 00:05:11;;;;;;;21.47;13.07;;;7.30;99.90;;;;;;5091278;28;20180;-73
2020/12/02 00:07:37;;;;;;;17.80;12.47;;;7.40;99.90;;;;;;5092464;28;20537;-73
2020/12/02 00:10:05;;;;;;;23.40;13.33;;;7.40;99.90;;;;;;5092341;28;20466;-74
2020/12/02 00:12:30;;;;;;;19.97;12.90;;;7.40;99.90;;;;;;5091117;28;20842;-73
2020/12/02 00:14:56;;;;;;;17.93;11.80;;;7.50;99.90;;;;;;5091699;28;20439;-74
2020/12/02 00:17:22;;;;;;;17.90;12.17;;;7.40;99.90;;;;;;5092634;28;20177;-72
2020/12/02 00:19:51;;;;;;;16.17;11.80;;;7.40;99.90;;;;;;5092306;28;20603;-73
2020/12/02 00:22:20;;;;;;;15.10;12.07;;;7.40;99.90;;;;;;5091570;28;20192;-72
2020/12/02 00:24:46;;;;;;;14.70;12.23;;;7.50;99.90;;;;;;5091516;28;20455;-72
2020/12/02 00:27:27;;;;;;;15.33;11.63;;;7.50;99.90;;;;;;5089081;28;20498;-72
2020/12/02 00:29:53;;;;;;;17.30;12.47;;;7.50;99.90;;;;;;5089942;28;20557;-72
2020/12/02 00:32:28;;;;;;;25.53;12.73;;;7.50;99.90;;;;;;5087361;28;20430;-72
2020/12/02 00:34:54;;;;;;;17.20;12.00;;;7.40;99.90;;;;;;5091454;28;20423;-72
2020/12/02 00:37:21;;;;;;;18.03;11.90;;;7.30;99.90;;;;;;5091805;28;20497;-72
2020/12/02 00:39:47;;;;;;;24.43;12.17;;;7.40;99.90;;;;;;5092062;28;20451;-72
2020/12/02 00:42:12;;;;;;;21.13;12.73;;;7.30;99.90;;;;;;5090454;28;20430;-72
2020/12/02 00:44:38;;;;;;;18.57;12.87;;;7.40;99.90;;;;;;5090691;28;20423;-73
2020/12/02 00:47:11;;;;;;;19.43;11.20;;;7.30;99.90;;;;;;5092218;28;20178;-72
2020/12/02 00:49:37;;;;;;;16.83;11.80;;;7.40;99.90;;;;;;5091758;28;20235;-72
2020/12/02 00:52:05;;;;;;;17.20;10.70;;;7.40;99.90;;;;;;5089651;28;20510;-72
2020/12/02 00:54:31;;;;;;;15.07;11.93;;;7.40;99.90;;;;;;5091884;28;20419;-73
2020/12/02 00:56:57;;;;;;;15.30;11.87;;;7.50;99.90;;;;;;5090322;28;20985;-72
2020/12/02 00:59:29;;;;;;;16.63;12.30;;;7.50;99.90;;;;;;5091897;28;20237;-72
2020/12/02 01:02:21;;;;;;;17.30;10.83;;;7.50;99.90;;;;;;5090591;28;20542;-72
2020/12/02 01:04:46;;;;;;;15.50;10.60;;;7.40;99.90;;;;;;5091325;28;20434;-72
2020/12/02 01:07:14;;;;;;;13.70;11.30;;;7.40;99.90;;;;;;5089546;28;20991;-72
2020/12/02 01:09:40;;;;;;;16.33;12.20;;;7.40;99.90;;;;;;5090926;28;20228;-72
2020/12/02 01:12:10;;;;;;;20.43;12.80;;;7.40;99.90;;;;;;5089165;28;20431;-72
2020/12/02 01:14:36;;;;;;;13.30;11.20;;;7.40;99.90;;;;;;5090088;28;20518;-72
2020/12/02 01:17:02;;;;;;;14.23;11.60;;;7.40;99.90;;;;;;5092069;28;20507;-72
2020/12/02 01:19:35;;;;;;;15.30;11.07;;;7.40;99.90;;;;;;5088684;28;20450;-72
2020/12/02 01:22:12;;;;;;;16.50;11.00;;;7.40;99.90;;;;;;5093362;28;20423;-73
2020/12/02 01:24:52;;;;;;;17.50;11.47;;;7.30;99.90;;;;;;5096681;28;20980;-72
2020/12/02 01:27:38;;;;;;;16.10;11.20;;;7.40;99.90;;;;;;5097000;28;20959;-73
2020/12/02 01:30:13;;;;;;;17.97;11.33;;;7.40;99.90;;;;;;5088846;28;20454;-72
2020/12/02 01:32:41;;;;;;;14.70;10.00;;;7.40;99.90;;;;;;5091603;28;20419;-72
2020/12/02 01:35:09;;;;;;;17.13;12.57;;;7.40;99.90;;;;;;5087823;28;20769;-72
2020/12/02 01:37:37;;;;;;;16.33;11.00;;;7.40;99.90;;;;;;5089195;28;20796;-72
2020/12/02 01:40:14;;;;;;;12.73;9.80;;;7.40;99.90;;;;;;5094308;28;20874;-74
2020/12/02 01:42:54;;;;;;;22.40;10.80;;;7.40;99.90;;;;;;5093311;28;20834;-72
2020/12/02 01:45:38;;;;;;;15.60;11.10;;;7.40;99.90;;;;;;5094218;28;20419;-72
2020/12/02 01:48:47;;;;;;;12.97;10.97;;;7.20;99.90;;;;;;5094658;28;20470;-72
2020/12/02 01:51:33;;;;;;;19.27;11.53;;;7.30;99.90;;;;;;5095612;28;20537;-73
2020/12/02 01:54:09;;;;;;;19.13;10.87;;;7.20;99.90;;;;;;5089005;28;20434;-72
2020/12/02 01:56:46;;;;;;;19.23;12.07;;;7.20;99.90;;;;;;5095645;28;20437;-72
2020/12/02 01:59:46;;;;;;;17.87;12.20;;;6.90;99.90;;;;;;5096036;28;20950;-73
2020/12/02 02:02:39;;;;;;;16.00;11.43;;;6.90;99.90;;;;;;5078380;28;20431;-72
2020/12/02 02:05:14;;;;;;;20.40;11.47;;;6.90;99.90;;;;;;5077654;28;20448;-72
2020/12/02 02:07:40;;;;;;;20.53;12.33;;;6.90;99.90;;;;;;5094031;28;20430;-72
2020/12/02 02:10:18;;;;;;;15.33;10.30;;;6.90;99.90;;;;;;5093709;28;20467;-72
2020/12/02 02:12:46;;;;;;;15.83;11.87;;;7.00;99.90;;;;;;5083702;28;20446;-72
2020/12/02 02:15:37;;;;;;;21.20;11.70;;;7.00;99.90;;;;;;5094396;28;20434;-72
2020/12/02 02:18:08;;;;;;;13.53;10.03;;;7.00;99.90;;;;;;5095226;28;20454;-73
2020/12/02 02:20:38;;;;;;;18.70;11.37;;;7.00;99.90;;;;;;5093118;28;20928;-73
2020/12/02 02:23:05;;;;;;;15.97;11.00;;;7.00;99.90;;;;;;5095231;28;21756;-73
2020/12/02 02:25:32;;;;;;;19.37;12.57;;;7.00;99.90;;;;;;5093991;28;20503;-72
2020/12/02 02:27:59;;;;;;;16.17;12.30;;;6.80;99.90;;;;;;5093373;28;20427;-71
2020/12/02 02:30:25;;;;;;;17.40;11.20;;;6.80;99.90;;;;;;5092994;28;20554;-72
2020/12/02 02:32:51;;;;;;;17.23;11.60;;;6.70;99.90;;;;;;5091766;28;20561;-72
2020/12/02 02:35:17;;;;;;;14.90;11.73;;;6.60;99.90;;;;;;5092594;28;20531;-72
2020/12/02 02:37:43;;;;;;;20.13;12.93;;;6.60;99.90;;;;;;5089619;28;20443;-73
2020/12/02 02:40:11;;;;;;;23.57;12.63;;;6.50;99.90;;;;;;5092212;28;20563;-72
2020/12/02 02:42:44;;;;;;;22.63;14.13;;;6.50;99.90;;;;;;5091740;28;20195;-73
2020/12/02 02:45:15;;;;;;;18.73;11.30;;;6.60;99.90;;;;;;5094258;28;20793;-72
2020/12/02 02:47:40;;;;;;;18.70;12.60;;;6.50;99.90;;;;;;5084669;28;20435;-73
2020/12/02 02:50:12;;;;;;;18.90;11.50;;;6.50;99.90;;;;;;5094286;28;20459;-72
2020/12/02 02:52:39;;;;;;;24.17;12.60;;;6.50;99.90;;;;;;5092874;28;20178;-72
2020/12/02 02:55:08;;;;;;;18.43;11.93;;;6.40;99.90;;;;;;5093592;28;20428;-72
2020/12/02 02:57:34;;;;;;;19.50;11.80;;;6.20;99.90;;;;;;5093814;28;20978;-72
2020/12/02 03:00:00;;;;;;;16.83;11.47;;;6.20;99.90;;;;;;5092572;28;20458;-72
2020/12/02 03:02:25;;;;;;;18.33;12.73;;;6.20;99.90;;;;;;5093433;28;20603;-72
2020/12/02 03:04:51;;;;;;;20.47;11.70;;;6.20;99.90;;;;;;5093230;28;20431;-73
2020/12/02 03:07:17;;;;;;;16.30;11.63;;;6.20;99.90;;;;;;5093678;28;20627;-72
2020/12/02 03:09:44;;;;;;;17.33;11.57;;;6.10;99.90;;;;;;5092767;28;20458;-72
2020/12/02 03:12:10;;;;;;;20.67;10.87;;;6.20;99.90;;;;;;5091856;28;20182;-72
2020/12/02 03:14:41;;;;;;;16.33;11.70;;;6.10;99.90;;;;;;5092286;28;20432;-72
2020/12/02 03:17:12;;;;;;;16.90;11.30;;;6.20;99.90;;;;;;5093012;28;20436;-72
2020/12/02 03:19:42;;;;;;;15.13;11.13;;;6.20;99.90;;;;;;5091798;28;21032;-72
2020/12/02 03:22:11;;;;;;;17.50;11.33;;;6.10;99.90;;;;;;5093408;28;20427;-72
2020/12/02 03:24:39;;;;;;;17.97;11.67;;;6.10;99.90;;;;;;5090894;28;20986;-73
2020/12/02 03:27:04;;;;;;;13.93;10.00;;;6.10;99.90;;;;;;5093548;28;20435;-73
2020/12/02 03:29:30;;;;;;;16.63;11.47;;;6.10;99.90;;;;;;5091326;28;20469;-73
2020/12/02 03:31:56;;;;;;;18.00;11.43;;;6.10;99.90;;;;;;5093191;28;20578;-72
2020/12/02 03:34:22;;;;;;;17.83;11.37;;;6.00;99.90;;;;;;5089799;28;20177;-73
2020/12/02 03:36:48;;;;;;;13.77;10.13;;;6.10;99.90;;;;;;5089276;28;20177;-72
2020/12/02 03:39:14;;;;;;;15.43;10.60;;;6.10;99.90;;;;;;5093589;28;20444;-73
2020/12/02 03:41:41;;;;;;;15.97;10.63;;;6.00;99.90;;;;;;5086760;28;20929;-73
2020/12/02 03:44:08;;;;;;;14.43;10.40;;;6.00;99.90;;;;;;5093020;28;20953;-72
2020/12/02 03:46:34;;;;;;;19.77;12.47;;;6.10;99.90;;;;;;5090004;28;22210;-72
2020/12/02 03:49:02;;;;;;;14.47;10.67;;;6.10;99.90;;;;;;5092515;28;20459;-71
2020/12/02 03:51:29;;;;;;;15.50;10.67;;;6.10;99.90;;;;;;5090885;28;20554;-72
2020/12/02 03:53:54;;;;;;;20.83;11.83;;;6.10;99.90;;;;;;5084773;28;20447;-72
2020/12/02 03:56:20;;;;;;;15.37;10.70;;;6.10;99.90;;;;;;5091308;28;20509;-72
2020/12/02 03:58:47;;;;;;;19.87;11.80;;;6.20;99.90;;;;;;5092940;28;20196;-72
2020/12/02 04:01:13;;;;;;;18.37;12.10;;;6.30;99.90;;;;;;5091968;28;20442;-72
2020/12/02 04:03:39;;;;;;;18.93;11.77;;;6.30;99.90;;;;;;5092706;28;20469;-72
2020/12/02 04:06:07;;;;;;;16.83;11.57;;;6.20;99.90;;;;;;5090026;28;20446;-72
2020/12/02 04:08:32;;;;;;;16.77;11.53;;;6.20;99.90;;;;;;5091702;28;20554;-72
2020/12/02 04:10:59;;;;;;;17.50;12.20;;;6.20;99.90;;;;;;5091753;28;20550;-72
2020/12/02 04:13:25;;;;;;;19.70;11.50;;;6.20;99.90;;;;;;5091010;28;20197;-72
2020/12/02 04:15:51;;;;;;;16.93;12.63;;;6.40;99.90;;;;;;5091497;28;20424;-72
2020/12/02 04:18:17;;;;;;;18.63;11.00;;;6.40;99.90;;;;;;5091801;28;20542;-72
2020/12/02 04:20:42;;;;;;;20.23;11.10;;;6.50;99.90;;;;;;5090514;28;20177;-72
2020/12/02 04:23:08;;;;;;;13.23;10.60;;;6.40;99.90;;;;;;5090786;28;20189;-72
2020/12/02 04:25:33;;;;;;;30.50;20.43;;;6.50;99.90;;;;;;5091816;28;20235;-71
2020/12/02 04:27:59;;;;;;;18.37;11.07;;;6.50;99.90;;;;;;5091553;28;20177;-72
2020/12/02 04:30:25;;;;;;;17.93;11.50;;;6.50;99.90;;;;;;5089093;28;20204;-72
2020/12/02 04:32:51;;;;;;;14.23;10.50;;;6.50;99.90;;;;;;5090917;28;20252;-72
2020/12/02 04:35:18;;;;;;;15.47;10.30;;;6.60;99.90;;;;;;5091348;28;20173;-72
2020/12/02 04:37:44;;;;;;;15.10;12.17;;;6.60;99.90;;;;;;5091611;28;20176;-72
2020/12/02 04:40:32;;;;;;;21.27;12.20;;;6.60;99.90;;;;;;5091217;28;20442;-73
2020/12/02 04:43:11;;;;;;;14.47;10.67;;;6.50;99.90;;;;;;5090724;28;20838;-73
2020/12/02 04:45:37;;;;;;;15.70;10.50;;;6.60;99.90;;;;;;5086255;28;20435;-73
2020/12/02 04:48:10;;;;;;;12.03;10.67;;;6.70;99.90;;;;;;5091388;28;20799;-73
2020/12/02 04:50:35;;;;;;;14.87;9.87;;;6.70;99.90;;;;;;5092120;28;20470;-72
2020/12/02 04:53:22;;;;;;;20.60;11.53;;;6.70;99.90;;;;;;5092258;28;20912;-72
2020/12/02 04:55:54;;;;;;;17.30;11.17;;;6.80;99.90;;;;;;5087925;28;20177;-72
2020/12/02 04:58:33;;;;;;;17.07;11.77;;;6.80;99.90;;;;;;5090952;28;20463;-72
2020/12/02 05:01:28;;;;;;;12.30;9.30;;;6.90;99.90;;;;;;5086509;28;20457;-72
2020/12/02 05:03:56;;;;;;;16.17;10.50;;;6.90;99.90;;;;;;5090547;28;20518;-72
2020/12/02 05:06:36;;;;;;;15.60;10.50;;;6.90;99.90;;;;;;5091467;28;20432;-72
2020/12/02 05:09:06;;;;;;;16.33;10.90;;;6.90;99.90;;;;;;5089701;28;20454;-71
2020/12/02 05:11:31;;;;;;;14.20;10.57;;;6.90;99.90;;;;;;5091088;28;20927;-72
2020/12/02 05:13:59;;;;;;;15.93;11.10;;;6.90;99.90;;;;;;5090283;28;20423;-72
2020/12/02 05:16:25;;;;;;;14.60;10.33;;;6.70;99.90;;;;;;5090666;28;20181;-71
2020/12/02 05:19:03;;;;;;;14.37;10.20;;;6.80;99.90;;;;;;5089379;28;20455;-72
2020/12/02 05:21:31;;;;;;;19.90;11.43;;;6.80;99.90;;;;;;5091238;28;20180;-72
2020/12/02 05:24:11;;;;;;;16.67;10.83;;;6.90;99.90;;;;;;5090452;28;20999;-72
2020/12/02 05:26:40;;;;;;;16.47;11.60;;;6.90;99.90;;;;;;5090671;28;20423;-72
2020/12/02 05:29:28;;;;;;;12.20;10.30;;;6.90;99.90;;;;;;5090848;28;20466;-72
2020/12/02 05:32:02;;;;;;;16.70;11.30;;;7.00;99.90;;;;;;5089374;28;20439;-72
2020/12/02 05:34:31;;;;;;;14.03;11.00;;;7.00;99.90;;;;;;5091457;28;20931;-72
2020/12/02 05:36:57;;;;;;;15.20;10.17;;;7.00;99.90;;;;;;5091287;28;20416;-72
2020/12/02 05:39:35;;;;;;;21.17;11.97;;;7.00;99.90;;;;;;5085458;28;20451;-72
2020/12/02 05:42:02;;;;;;;15.57;11.17;;;7.00;99.90;;;;;;5089966;28;20510;-72
2020/12/02 05:44:28;;;;;;;12.80;10.10;;;6.90;99.90;;;;;;5089957;28;20471;-72
2020/12/02 05:47:00;;;;;;;14.33;9.87;;;6.90;99.90;;;;;;5086677;28;20474;-71
2020/12/02 05:49:38;;;;;;;15.90;10.77;;;6.90;99.90;;;;;;5086772;28;20213;-72
2020/12/02 05:52:09;;;;;;;19.00;11.20;;;6.90;99.90;;;;;;5084411;28;20426;-72
2020/12/02 05:54:35;;;;;;;13.63;10.00;;;6.90;99.90;;;;;;5091010;28;20637;-72
2020/12/02 05:57:04;;;;;;;16.17;10.57;;;6.80;99.90;;;;;;5090854;28;20438;-72
2020/12/02 05:59:30;;;;;;;15.83;11.50;;;6.80;99.90;;;;;;5090193;28;20200;-73
2020/12/02 06:02:01;;;;;;;15.80;10.80;;;6.80;99.90;;;;;;5090474;28;20803;-73
2020/12/02 06:04:26;;;;;;;20.07;10.77;;;6.70;99.90;;;;;;5091308;28;20177;-72
2020/12/02 06:06:54;;;;;;;18.10;11.80;;;6.70;99.90;;;;;;5091534;28;20435;-73
2020/12/02 06:09:27;;;;;;;16.03;11.90;;;6.50;99.90;;;;;;5091632;28;20205;-72
2020/12/02 06:12:19;;;;;;;18.27;10.57;;;6.50;99.90;;;;;;5092856;28;20430;-73
2020/12/02 06:14:45;;;;;;;14.07;11.30;;;6.50;99.90;;;;;;5093452;28;20496;-72
2020/12/02 06:17:28;;;;;;;13.67;11.00;;;6.60;99.90;;;;;;5094863;28;20497;-73
2020/12/02 06:19:55;;;;;;;17.40;11.10;;;6.60;99.90;;;;;;5092951;28;20537;-73
2020/12/02 06:22:51;;;;;;;15.43;10.23;;;6.60;99.90;;;;;;5093411;28;20797;-72
2020/12/02 06:25:52;;;;;;;14.23;10.53;;;6.70;99.90;;;;;;5090710;28;20419;-72
2020/12/02 06:28:44;;;;;;;19.40;10.50;;;6.80;99.90;;;;;;5092524;28;20461;-71
2020/12/02 06:31:21;;;;;;;13.40;11.53;;;6.80;99.90;;;;;;5090883;28;20451;-72
2020/12/02 06:33:48;;;;;;;12.87;9.37;;;6.80;99.90;;;;;;5093879;28;20439;-72
2020/12/02 06:36:31;;;;;;;15.93;10.90;;;6.70;99.90;;;;;;5093992;28;20427;-72
2020/12/02 06:39:08;;;;;;;14.90;11.03;;;6.70;99.90;;;;;;5091031;28;20500;-71
2020/12/02 06:41:42;;;;;;;13.30;10.80;;;6.70;99.90;;;;;;5092294;28;20512;-72
2020/12/02 06:44:14;;;;;;;12.60;9.73;;;6.60;99.90;;;;;;5091988;28;20427;-72
2020/12/02 06:46:55;;;;;;;20.00;11.77;;;6.50;99.90;;;;;;5092848;28;20469;-72
2020/12/02 06:49:28;;;;;;;24.40;12.57;;;6.40;99.90;;;;;;5093211;28;20922;-72
2020/12/02 06:52:03;;;;;;;18.93;11.77;;;6.50;99.90;;;;;;5091969;28;20837;-72
2020/12/02 06:54:30;;;;;;;15.20;11.53;;;6.60;99.90;;;;;;5093140;28;20456;-72
2020/12/02 06:57:20;;;;;;;19.37;11.70;;;6.50;99.90;;;;;;5093338;28;20431;-73
2020/12/02 06:59:58;;;;;;;14.73;11.60;;;6.40;99.90;;;;;;5092048;28;20865;-72
2020/12/02 07:02:36;;;;;;;17.43;11.00;;;6.50;99.90;;;;;;5091409;28;20514;-71
2020/12/02 07:05:10;;;;;;;15.33;11.30;;;6.40;99.90;;;;;;5097342;28;20759;-72
2020/12/02 07:07:36;;;;;;;19.10;12.27;;;6.30;99.90;;;;;;5093841;28;20766;-73
2020/12/02 07:10:02;;;;;;;16.00;12.13;;;6.20;99.90;;;;;;5093179;28;20546;-72
2020/12/02 07:12:30;;;;;;;14.17;10.90;;;6.30;99.90;;;;;;5093290;28;20173;-72
2020/12/02 07:15:00;;;;;;;16.63;11.80;;;6.20;99.90;;;;;;5092675;28;20485;-72
2020/12/02 07:17:26;;;;;;;14.40;10.13;;;6.20;99.90;;;;;;5093402;28;20920;-72
2020/12/02 07:19:53;;;;;;;18.77;13.13;;;6.20;99.90;;;;;;5090816;28;20448;-72
2020/12/02 07:22:26;;;;;;;14.60;11.40;;;6.10;99.90;;;;;;5091526;28;20431;-72
2020/12/02 07:24:58;;;;;;;16.87;12.53;;;6.10;99.90;;;;;;5092702;28;20431;-73
2020/12/02 07:27:24;;;;;;;16.93;11.93;;;6.20;99.90;;;;;;5094017;28;20415;-73
2020/12/02 07:30:06;;;;;;;17.60;12.30;;;6.20;99.90;;;;;;5092508;28;20451;-73
2020/12/02 07:32:32;;;;;;;15.73;11.97;;;6.10;99.90;;;;;;5091742;28;20646;-72
2020/12/02 07:35:11;;;;;;;18.83;11.93;;;6.10;99.90;;;;;;5092765;28;20423;-72
2020/12/02 07:37:37;;;;;;;14.63;10.37;;;5.90;99.90;;;;;;5092049;28;20779;-72
2020/12/02 07:40:04;;;;;;;18.53;13.30;;;6.00;99.90;;;;;;5091811;28;20447;-72
2020/12/02 07:42:37;;;;;;;19.07;12.10;;;6.10;99.90;;;;;;5089644;28;20176;-72
2020/12/02 07:45:12;;;;;;;14.70;10.67;;;6.00;99.90;;;;;;5091978;28;20436;-72
2020/12/02 07:47:38;;;;;;;15.40;12.23;;;6.00;99.90;;;;;;5079663;28;20432;-72
2020/12/02 07:50:31;;;;;;;14.93;10.90;;;5.90;99.90;;;;;;5092302;28;20458;-72
2020/12/02 07:53:08;;;;;;;16.70;12.07;;;5.90;99.90;;;;;;5093099;28;20747;-72
2020/12/02 07:55:43;;;;;;;17.57;12.57;;;5.70;99.90;;;;;;5090148;28;20412;-72
2020/12/02 07:58:32;;;;;;;15.80;11.50;;;5.80;99.90;;;;;;5091477;28;20438;-72
2020/12/02 08:01:07;;;;;;;15.97;11.90;;;5.70;99.90;;;;;;5091972;28;20434;-72
2020/12/02 08:03:37;;;;;;;15.50;11.73;;;5.70;99.90;;;;;;5092222;28;20451;-72
2020/12/02 08:06:41;;;;;;;14.20;11.07;;;5.70;99.90;;;;;;5091888;28;20782;-72
2020/12/02 08:09:07;;;;;;;14.63;10.50;;;5.60;99.90;;;;;;5092067;28;20546;-72
2020/12/02 08:11:33;;;;;;;15.17;12.93;;;5.60;99.90;;;;;;5085928;28;20542;-72
2020/12/02 08:13:58;;;;;;;14.80;10.23;;;5.50;99.90;;;;;;5090342;28;20199;-73
2020/12/02 08:16:37;;;;;;;14.00;11.03;;;5.60;99.90;;;;;;5090992;28;20166;-72
2020/12/02 08:19:05;;;;;;;18.50;11.37;;;5.50;99.90;;;;;;5084996;28;20196;-72
2020/12/02 08:21:31;;;;;;;12.50;11.07;;;5.50;99.90;;;;;;5083171;28;20432;-72
2020/12/02 08:24:21;;;;;;;17.60;12.40;;;5.50;99.90;;;;;;5091580;28;20788;-73
2020/12/02 08:26:51;;;;;;;16.53;11.40;;;5.40;99.90;;;;;;5085052;28;20804;-73
2020/12/02 08:29:20;;;;;;;15.50;11.13;;;5.50;99.90;;;;;;5090308;28;20455;-72
2020/12/02 08:31:55;;;;;;;15.83;11.37;;;5.50;99.90;;;;;;5089252;28;20777;-72
2020/12/02 08:34:21;;;;;;;18.10;12.37;;;5.50;99.90;;;;;;5090727;28;20892;-72
2020/12/02 08:36:49;;;;;;;14.50;10.93;;;5.40;99.90;;;;;;5089851;28;20523;-72
2020/12/02 08:39:31;;;;;;;13.90;10.60;;;5.40;99.90;;;;;;5089795;28;20205;-71
2020/12/02 08:41:57;;;;;;;14.30;10.87;;;5.40;99.90;;;;;;5089548;28;20426;-71
2020/12/02 08:44:23;;;;;;;14.53;10.90;;;5.30;99.90;;;;;;5089459;28;20431;-72
2020/12/02 08:47:02;;;;;;;16.83;11.90;;;5.30;99.90;;;;;;5086109;28;20505;-72
2020/12/02 08:49:33;;;;;;;16.23;12.60;;;5.20;99.90;;;;;;5090296;28;20741;-72
2020/12/02 08:51:58;;;;;;;14.73;11.30;;;5.30;99.90;;;;;;5090169;28;20506;-72
2020/12/02 08:54:25;;;;;;;20.03;13.80;;;5.30;99.90;;;;;;5090412;28;20509;-72
2020/12/02 08:57:01;;;;;;;16.83;13.50;;;5.30;99.90;;;;;;5090247;28;20920;-72
2020/12/02 08:59:26;;;;;;;15.33;12.50;;;5.40;99.90;;;;;;5089157;28;20443;-72
2020/12/02 09:01:58;;;;;;;18.67;12.90;;;5.50;99.90;;;;;;5089790;28;20847;-72
2020/12/02 09:04:25;;;;;;;18.87;12.83;;;5.50;99.90;;;;;;5088506;28;20234;-72
2020/12/02 09:06:50;;;;;;;13.70;11.87;;;5.40;99.90;;;;;;5090148;28;20432;-72
2020/12/02 09:09:16;;;;;;;17.80;12.63;;;5.40;99.90;;;;;;5090153;28;20443;-72
2020/12/02 09:11:41;;;;;;;17.73;12.27;;;5.40;99.90;;;;;;5089001;28;20177;-72
2020/12/02 09:14:07;;;;;;;15.93;12.40;;;5.50;99.90;;;;;;5090812;28;20551;-72
2020/12/02 09:16:36;;;;;;;17.23;12.23;;;5.50;99.90;;;;;;5089396;28;20169;-72
2020/12/02 09:19:07;;;;;;;15.43;12.13;;;5.50;99.90;;;;;;5089323;28;20203;-72
2020/12/02 09:21:33;;;;;;;15.30;12.03;;;5.40;99.90;;;;;;5089748;28;20426;-72
2020/12/02 09:24:00;;;;;;;16.20;13.40;;;5.40;99.90;;;;;;5090172;28;20634;-71
2020/12/02 09:26:28;;;;;;;14.63;12.80;;;5.40;99.90;;;;;;5086642;28;20182;-72
2020/12/02 09:28:55;;;;;;;15.90;11.80;;;5.40;99.90;;;;;;5089398;28;20459;-72
2020/12/02 09:31:23;;;;;;;18.07;13.07;;;5.50;99.90;;;;;;5088118;28;20460;-72
2020/12/02 09:33:50;;;;;;;18.20;13.07;;;5.50;99.90;;;;;;5090373;28;20432;-72
2020/12/02 09:36:16;;;;;;;18.03;13.27;;;5.50;99.90;;;;;;5088213;28;20504;-71
2020/12/02 09:38:44;;;;;;;15.27;12.17;;;5.50;99.90;;;;;;5088706;28;20466;-71
2020/12/02 09:41:28;;;;;;;19.63;13.37;;;5.50;99.90;;;;;;5088950;28;20439;-71
2020/12/02 09:44:15;;;;;;;17.40;13.23;;;5.60;99.90;;;;;;5091822;28;20427;-72
2020/12/02 09:46:43;;;;;;;14.40;11.73;;;5.70;99.90;;;;;;5093398;28;20484;-72
2020/12/02 09:49:10;;;;;;;15.83;10.60;;;6.30;99.90;;;;;;5093497;28;20467;-71
2020/12/02 09:51:36;;;;;;;12.53;8.83;;;7.00;99.90;;;;;;5092592;28;20540;-72
2020/12/02 09:54:02;;;;;;;10.83;8.70;;;7.30;99.90;;;;;;5078442;28;20423;-72
2020/12/02 09:56:28;;;;;;;13.53;10.97;;;7.30;99.90;;;;;;5092162;28;20207;-72
2020/12/02 09:58:57;;;;;;;10.03;9.00;;;7.30;99.90;;;;;;5093553;28;20628;-72
2020/12/02 10:01:41;;;;;;;13.97;10.50;;;7.00;99.90;;;;;;5092752;28;20435;-72
2020/12/02 10:04:30;;;;;;;11.60;10.37;;;6.80;99.90;;;;;;5079127;28;20841;-72
2020/12/02 10:07:04;;;;;;;13.50;10.97;;;6.40;99.90;;;;;;5086285;28;20815;-72
2020/12/02 10:09:42;;;;;;;16.07;12.97;;;6.20;99.90;;;;;;5092567;28;20449;-72
2020/12/02 10:12:31;;;;;;;15.20;12.07;;;5.80;99.90;;;;;;5086865;28;20428;-72
2020/12/02 10:15:41;;;;;;;14.73;11.20;;;5.60;99.90;;;;;;5092503;28;20431;-73
2020/12/02 10:18:26;;;;;;;12.83;9.90;;;5.50;99.90;;;;;;5074096;28;20463;-72
2020/12/02 10:21:10;;;;;;;14.47;10.37;;;5.50;99.90;;;;;;5092597;28;20962;-72
2020/12/02 10:24:02;;;;;;;13.97;11.43;;;5.50;99.90;;;;;;5092471;28;20422;-73
2020/12/02 10:27:07;;;;;;;14.73;10.83;;;5.50;99.90;;;;;;5094149;28;20431;-72
2020/12/02 10:29:38;;;;;;;12.63;10.47;;;5.50;99.90;;;;;;5086081;28;20482;-73
2020/12/02 10:32:24;;;;;;;10.17;8.93;;;5.50;99.90;;;;;;5093523;28;20526;-72
2020/12/02 10:34:50;;;;;;;9.73;8.30;;;5.50;99.90;;;;;;5093431;28;20502;-73
2020/12/02 10:37:41;;;;;;;10.87;9.03;;;5.50;99.90;;;;;;5093210;28;20526;-73
2020/12/02 10:40:10;;;;;;;10.10;8.63;;;5.60;99.90;;;;;;5091112;28;20205;-72
2020/12/02 10:42:58;;;;;;;14.47;10.43;;;5.60;99.90;;;;;;5093387;28;20418;-72
2020/12/02 10:45:24;;;;;;;12.93;10.27;;;5.70;99.90;;;;;;5085136;28;20510;-72
2020/12/02 10:48:26;;;;;;;12.27;9.77;;;5.80;99.90;;;;;;5093767;28;20545;-73
2020/12/02 10:50:52;;;;;;;13.20;10.47;;;5.90;99.90;;;;;;5092869;28;20556;-73
2020/12/02 10:53:26;;;;;;;12.90;10.30;;;5.90;99.90;;;;;;5093804;28;20410;-73
2020/12/02 10:55:53;;;;;;;10.80;9.57;;;6.00;99.90;;;;;;5093503;28;20167;-73
2020/12/02 10:58:24;;;;;;;14.10;9.50;;;5.90;99.90;;;;;;5092197;28;20476;-72
2020/12/02 11:00:53;;;;;;;11.10;9.93;;;6.00;99.90;;;;;;5091193;28;20431;-72
2020/12/02 11:03:33;;;;;;;11.63;10.17;;;6.10;99.90;;;;;;5092495;28;20476;-72
2020/12/02 11:06:14;;;;;;;10.20;8.47;;;6.20;99.90;;;;;;5092039;28;20947;-72
2020/12/02 11:09:10;;;;;;;9.80;8.77;;;6.20;99.90;;;;;;5091923;28;20451;-73
2020/12/02 11:11:49;;;;;;;10.90;8.40;;;6.40;99.90;;;;;;5091975;28;20486;-72
2020/12/02 11:14:26;;;;;;;9.10;8.20;;;6.40;99.90;;;;;;5091632;28;20431;-72
2020/12/02 11:17:25;;;;;;;8.43;7.63;;;6.40;99.90;;;;;;5092466;28;20780;-72
2020/12/02 11:20:06;;;;;;;9.53;8.30;;;6.40;99.90;;;;;;5092025;28;20560;-72
2020/12/02 11:22:51;;;;;;;9.27;8.20;;;6.30;99.90;;;;;;5092592;28;20939;-72
2020/12/02 11:25:19;;;;;;;10.53;8.13;;;6.20;99.90;;;;;;5092150;28;20484;-72
2020/12/02 11:27:46;;;;;;;9.40;6.73;;;6.10;99.90;;;;;;5091804;28;20948;-72
2020/12/02 11:30:39;;;;;;;10.93;7.90;;;6.20;99.90;;;;;;5091652;28;20463;-72
2020/12/02 11:33:19;;;;;;;10.60;7.40;;;6.10;99.90;;;;;;5091833;28;20427;-72
2020/12/02 11:36:07;;;;;;;8.07;7.27;;;6.10;99.90;;;;;;5072268;28;20439;-72
2020/12/02 11:39:14;;;;;;;10.70;8.60;;;6.10;99.90;;;;;;5090904;28;20787;-72
2020/12/02 11:42:04;;;;;;;10.20;8.17;;;6.10;99.90;;;;;;5091146;28;20403;-72
2020/12/02 11:44:49;;;;;;;9.93;8.90;;;6.20;99.90;;;;;;5091589;28;20424;-72
2020/12/02 11:47:29;;;;;;;11.33;8.53;;;6.10;99.90;;;;;;5089762;28;21027;-72
2020/12/02 11:50:01;;;;;;;10.63;9.63;;;6.10;99.90;;;;;;5091027;28;20455;-72
2020/12/02 11:52:50;;;;;;;11.40;10.00;;;6.20;99.90;;;;;;5091424;28;20915;-71
2020/12/02 11:55:18;;;;;;;12.57;8.43;;;6.20;99.90;;;;;;5090791;28;20426;-72
2020/12/02 11:57:51;;;;;;;9.10;7.70;;;6.30;99.90;;;;;;5090894;28;20477;-72
2020/12/02 12:00:18;;;;;;;12.37;8.47;;;6.20;99.90;;;;;;5091325;28;20478;-72
2020/12/02 12:03:21;;;;;;;9.93;8.93;;;6.30;99.90;;;;;;5089843;28;20450;-72
2020/12/02 12:06:00;;;;;;;10.27;9.27;;;6.20;99.90;;;;;;5090770;28;20457;-72
2020/12/02 12:08:50;;;;;;;13.73;8.63;;;6.30;99.90;;;;;;5091258;28;20482;-72
2020/12/02 12:11:23;;;;;;;9.10;8.00;;;6.30;99.90;;;;;;5091123;28;20459;-72
2020/12/02 12:14:01;;;;;;;10.80;8.13;;;6.30;99.90;;;;;;5090414;28;20933;-72
2020/12/02 12:16:57;;;;;;;9.87;8.40;;;6.30;99.90;;;;;;5091215;28;20504;-73
2020/12/02 12:19:45;;;;;;;11.67;8.57;;;6.30;99.90;;;;;;5091090;28;20435;-72
2020/12/02 12:22:33;;;;;;;13.90;8.73;;;6.30;99.90;;;;;;5091394;28;20428;-73
2020/12/02 12:25:35;;;;;;;10.90;9.17;;;6.40;99.90;;;;;;5091002;28;20420;-72
2020/12/02 12:28:05;;;;;;;12.20;8.83;;;6.50;99.90;;;;;;5046626;28;20973;-72
2020/12/02 12:30:31;;;;;;;9.37;8.43;;;6.50;99.90;;;;;;5090704;28;20451;-72
2020/12/02 12:33:15;;;;;;;11.50;9.03;;;6.50;99.90;;;;;;5090694;28;20538;-73
2020/12/02 12:35:49;;;;;;;13.77;7.80;;;6.50;99.90;;;;;;5088963;28;20280;-73
2020/12/02 12:38:24;;;;;;;12.17;9.37;;;6.50;99.90;;;;;;5089770;28;20508;-73
2020/12/02 12:40:59;;;;;;;13.27;10.50;;;6.60;99.90;;;;;;5089225;28;20438;-72
2020/12/02 12:43:29;;;;;;;10.90;8.70;;;6.50;99.90;;;;;;5089978;28;20427;-73
2020/12/02 12:46:07;;;;;;;10.00;8.90;;;6.50;99.90;;;;;;5090202;28;20848;-73
2020/12/02 12:48:33;;;;;;;9.77;7.90;;;6.50;99.90;;;;;;5090648;28;20465;-72
2020/12/02 12:51:02;;;;;;;11.67;8.77;;;6.60;99.90;;;;;;5089547;28;20451;-73
2020/12/02 12:53:27;;;;;;;11.70;9.40;;;6.60;99.90;;;;;;5090530;28;20488;-73
2020/12/02 12:55:53;;;;;;;9.50;8.30;;;6.50;99.90;;;;;;5090474;28;20419;-73
2020/12/02 12:58:19;;;;;;;11.80;8.33;;;6.50;99.90;;;;;;5090486;28;20654;-72
2020/12/02 13:00:50;;;;;;;11.67;8.20;;;6.50;99.90;;;;;;5090336;28;20431;-72
2020/12/02 13:03:20;;;;;;;11.23;8.17;;;6.50;99.90;;;;;;5090549;28;20235;-72
2020/12/02 13:05:56;;;;;;;17.87;9.93;;;6.50;99.90;;;;;;5089675;28;20940;-72
2020/12/02 13:08:33;;;;;;;13.53;10.10;;;6.50;99.90;;;;;;5090396;28;20465;-72
2020/12/02 13:11:06;;;;;;;15.47;9.77;;;6.50;99.90;;;;;;5090149;28;20458;-72
2020/12/02 13:13:41;;;;;;;10.60;8.43;;;6.50;99.90;;;;;;5089206;28;20865;-72